createdAt,value
2024-02-24T00:01:55.040Z,30.90
2024-02-24T00:04:22.676Z,33.50
2024-02-24T00:06:50.257Z,31.40
2024-02-24T00:09:17.734Z,33.60
2024-02-24T00:11:45.569Z,35.70
2024-02-24T00:14:13.050Z,36.10
2024-02-24T00:16:40.622Z,37.10
2024-02-24T00:19:08.079Z,40.10
2024-02-24T00:21:35.611Z,40.80
2024-02-24T00:24:03.037Z,38.30
2024-02-24T00:26:30.284Z,37.60
2024-02-24T00:28:57.653Z,37.50
2024-02-24T00:31:25.005Z,43.90
2024-02-24T00:33:52.383Z,41.70
2024-02-24T00:36:20.103Z,38.50
2024-02-24T00:38:47.412Z,38.00
2024-02-24T00:41:14.894Z,42.80
2024-02-24T00:43:42.722Z,39.70
2024-02-24T00:46:10.797Z,41.80
2024-02-24T00:48:38.127Z,43.80
2024-02-24T00:51:05.717Z,43.60
2024-02-24T00:53:33.000Z,42.50
2024-02-24T00:56:00.499Z,42.20
2024-02-24T00:58:27.752Z,43.10
2024-02-24T01:00:55.144Z,41.20
2024-02-24T01:03:23.233Z,40.60
2024-02-24T01:05:51.002Z,43.80
2024-02-24T01:08:18.371Z,40.10
2024-02-24T01:10:46.113Z,40.20
2024-02-24T01:13:14.076Z,41.20
2024-02-24T01:15:41.802Z,36.60
2024-02-24T01:18:09.660Z,38.40
2024-02-24T01:20:37.672Z,37.80
2024-02-24T01:23:05.174Z,37.20
2024-02-24T01:25:32.680Z,38.70
2024-02-24T01:27:59.901Z,37.80
2024-02-24T01:30:27.929Z,38.00
2024-02-24T01:32:55.521Z,34.50
2024-02-24T01:35:23.338Z,36.50
2024-02-24T01:37:50.653Z,33.70
2024-02-24T01:40:18.260Z,36.70
2024-02-24T01:42:46.898Z,30.30
2024-02-24T01:45:15.727Z,30.60
2024-02-24T01:47:43.764Z,30.20
2024-02-24T01:50:13.324Z,31.20
2024-02-24T01:52:41.095Z,28.90
2024-02-24T01:55:10.400Z,28.80
2024-02-24T01:57:43.978Z,27.40
2024-02-24T02:00:13.949Z,31.50
2024-02-24T02:02:44.636Z,26.60
2024-02-24T02:05:14.923Z,28.10
2024-02-24T02:07:42.399Z,27.30
2024-02-24T02:10:10.978Z,30.30
2024-02-24T02:12:38.814Z,26.90
2024-02-24T02:15:07.607Z,25.90
2024-02-24T02:17:35.182Z,24.00
2024-02-24T02:20:06.186Z,28.20
2024-02-24T02:22:34.173Z,26.10
2024-02-24T02:25:01.541Z,26.60
2024-02-24T02:27:28.682Z,27.70
2024-02-24T02:29:56.139Z,25.50
2024-02-24T02:32:23.797Z,25.30
2024-02-24T02:34:51.473Z,23.90
2024-02-24T02:37:18.835Z,27.70
2024-02-24T02:39:45.970Z,24.40
2024-02-24T02:42:14.538Z,23.40
2024-02-24T02:44:42.283Z,22.80
2024-02-24T02:47:17.305Z,25.60
2024-02-24T02:49:47.391Z,22.00
2024-02-24T02:52:14.829Z,21.60
2024-02-24T02:54:42.084Z,22.20
2024-02-24T02:57:09.388Z,20.80
2024-02-24T02:59:39.504Z,22.20
2024-02-24T03:02:07.388Z,22.50
2024-02-24T03:04:34.690Z,22.20
2024-02-24T03:07:01.974Z,22.30
2024-02-24T03:09:29.249Z,23.60
2024-02-24T03:11:57.143Z,22.90
2024-02-24T03:14:25.048Z,26.40
2024-02-24T03:16:55.013Z,22.70
2024-02-24T03:19:22.447Z,24.40
2024-02-24T03:21:50.261Z,22.70
2024-02-24T03:24:17.714Z,24.80
2024-02-24T03:26:45.075Z,24.00
2024-02-24T03:29:12.348Z,22.10
2024-02-24T03:31:39.609Z,24.50
2024-02-24T03:34:08.742Z,24.30
2024-02-24T03:36:36.238Z,26.20
2024-02-24T03:39:03.524Z,26.10
2024-02-24T03:41:34.123Z,24.70
2024-02-24T03:44:02.190Z,22.80
2024-02-24T03:46:29.547Z,24.20
2024-02-24T03:48:56.779Z,24.40
2024-02-24T03:51:24.170Z,23.90
2024-02-24T03:53:51.570Z,24.10
2024-02-24T03:56:18.778Z,22.30
2024-02-24T03:58:46.624Z,23.30
2024-02-24T04:01:14.092Z,22.00
2024-02-24T04:03:41.489Z,25.40
2024-02-24T04:06:10.039Z,24.80
2024-02-24T04:08:37.833Z,24.80
2024-02-24T04:11:05.793Z,25.20
2024-02-24T04:13:33.325Z,21.70
2024-02-24T04:16:01.102Z,21.70
2024-02-24T04:18:28.515Z,25.00
2024-02-24T04:20:55.928Z,22.60
2024-02-24T04:23:23.776Z,24.10
2024-02-24T04:25:51.054Z,23.70
2024-02-24T04:28:20.398Z,22.20
2024-02-24T04:30:49.032Z,24.70
2024-02-24T04:33:16.710Z,21.50
2024-02-24T04:35:44.191Z,22.60
2024-02-24T04:38:11.606Z,21.60
2024-02-24T04:40:39.350Z,25.30
2024-02-24T04:43:06.962Z,24.80
2024-02-24T04:45:34.274Z,23.10
2024-02-24T04:48:01.811Z,21.90
2024-02-24T04:50:29.576Z,23.70
2024-02-24T04:52:56.970Z,21.70
2024-02-24T04:55:24.296Z,21.50
2024-02-24T04:57:51.554Z,22.40
2024-02-24T05:00:20.024Z,24.30
2024-02-24T05:02:47.557Z,22.80
2024-02-24T05:05:15.441Z,22.50
2024-02-24T05:07:43.225Z,21.70
2024-02-24T05:10:11.542Z,22.10
2024-02-24T05:12:39.224Z,25.10
2024-02-24T05:15:07.288Z,21.40
2024-02-24T05:17:34.808Z,23.30
2024-02-24T05:20:02.111Z,22.70
2024-02-24T05:22:29.396Z,21.40
2024-02-24T05:24:56.661Z,23.30
2024-02-24T05:27:23.801Z,21.40
2024-02-24T05:29:51.194Z,22.20
2024-02-24T05:32:18.972Z,22.10
2024-02-24T05:34:46.632Z,21.60
2024-02-24T05:37:13.951Z,18.90
2024-02-24T05:39:41.297Z,22.20
2024-02-24T05:42:09.311Z,23.80
2024-02-24T05:44:36.633Z,20.80
2024-02-24T05:47:05.223Z,21.00
2024-02-24T05:49:32.702Z,23.20
2024-02-24T05:52:00.020Z,18.50
2024-02-24T05:54:27.374Z,22.00
2024-02-24T05:56:54.544Z,17.60
2024-02-24T05:59:22.029Z,20.50
2024-02-24T06:01:49.234Z,20.00
2024-02-24T06:04:17.345Z,18.40
2024-02-24T06:06:47.720Z,20.60
2024-02-24T06:09:15.210Z,19.80
2024-02-24T06:11:42.554Z,17.00
2024-02-24T06:14:09.938Z,16.80
2024-02-24T06:16:37.257Z,18.30
2024-02-24T06:19:04.544Z,15.60
2024-02-24T06:21:34.168Z,18.00
2024-02-24T06:24:01.481Z,16.30
2024-02-24T06:26:28.656Z,16.20
2024-02-24T06:28:57.409Z,16.80
2024-02-24T06:31:24.573Z,16.10
2024-02-24T06:33:52.040Z,15.20
2024-02-24T06:36:19.303Z,16.50
2024-02-24T06:38:46.532Z,16.40
2024-02-24T06:41:14.187Z,16.50
2024-02-24T06:43:41.435Z,16.60
2024-02-24T06:46:08.722Z,17.20
2024-02-24T06:48:36.135Z,16.60
2024-02-24T06:51:03.501Z,15.70
2024-02-24T06:53:31.186Z,16.50
2024-02-24T06:55:58.416Z,16.70
2024-02-24T06:58:25.569Z,15.90
2024-02-24T07:00:53.064Z,14.70
2024-02-24T07:03:21.088Z,16.10
2024-02-24T07:05:48.660Z,14.50
2024-02-24T07:08:16.617Z,19.00
2024-02-24T07:10:44.063Z,14.10
2024-02-24T07:13:12.026Z,15.10
2024-02-24T07:15:39.994Z,15.10
2024-02-24T07:18:08.033Z,15.70
2024-02-24T07:20:35.493Z,18.80
2024-02-24T07:23:02.683Z,18.30
2024-02-24T07:25:30.160Z,12.80
2024-02-24T07:27:58.144Z,15.60
2024-02-24T07:30:25.584Z,16.70
2024-02-24T07:32:53.059Z,13.80
2024-02-24T07:35:20.368Z,17.40
2024-02-24T07:37:47.855Z,15.50
2024-02-24T07:40:16.372Z,15.40
2024-02-24T07:42:43.686Z,17.00
2024-02-24T07:45:12.287Z,13.80
2024-02-24T07:47:39.537Z,17.20
2024-02-24T07:50:08.791Z,14.00
2024-02-24T07:52:36.418Z,16.90
2024-02-24T07:55:04.314Z,19.60
2024-02-24T07:57:31.567Z,15.20
2024-02-24T07:59:59.283Z,15.20
2024-02-24T08:02:26.833Z,14.20
2024-02-24T08:04:54.310Z,13.20
2024-02-24T08:07:21.792Z,13.30
2024-02-24T08:09:49.208Z,13.30
2024-02-24T08:12:16.609Z,12.40
2024-02-24T08:14:44.196Z,16.80
2024-02-24T08:17:13.383Z,13.50
2024-02-24T08:19:40.819Z,17.50
2024-02-24T08:22:08.167Z,12.50
2024-02-24T08:24:35.503Z,14.10
2024-02-24T08:27:02.813Z,15.00
2024-02-24T08:29:33.123Z,15.80
2024-02-24T08:32:00.788Z,15.40
2024-02-24T08:34:28.252Z,13.80
2024-02-24T08:36:55.646Z,14.30
2024-02-24T08:39:23.001Z,12.30
2024-02-24T08:41:50.335Z,14.50
2024-02-24T08:44:19.098Z,15.60
2024-02-24T08:46:46.301Z,14.60
2024-02-24T08:49:13.655Z,16.80
2024-02-24T08:51:41.573Z,14.80
2024-02-24T08:54:09.114Z,14.50
2024-02-24T08:56:36.469Z,13.30
2024-02-24T08:59:03.910Z,15.00
2024-02-24T09:01:31.151Z,14.70
2024-02-24T09:04:00.933Z,14.70
2024-02-24T09:06:28.299Z,15.20
2024-02-24T09:08:55.605Z,14.00
2024-02-24T09:11:23.267Z,14.60
2024-02-24T09:13:51.197Z,15.30
2024-02-24T09:16:20.281Z,15.50
2024-02-24T09:18:47.732Z,13.00
2024-02-24T09:21:15.126Z,13.20
2024-02-24T09:23:42.537Z,13.00
2024-02-24T09:26:10.062Z,12.60
2024-02-24T09:28:37.573Z,12.30
2024-02-24T09:31:04.932Z,17.10
2024-02-24T09:33:32.331Z,12.20
2024-02-24T09:35:59.755Z,14.90
2024-02-24T09:38:27.438Z,15.60
2024-02-24T09:40:54.967Z,14.60
2024-02-24T09:43:22.438Z,12.60
2024-02-24T09:45:50.704Z,12.50
2024-02-24T09:48:19.472Z,13.40
2024-02-24T09:50:47.064Z,13.20
2024-02-24T09:53:14.454Z,15.90
2024-02-24T09:55:41.692Z,14.40
2024-02-24T09:58:15.980Z,12.80
2024-02-24T10:00:45.225Z,12.30
2024-02-24T10:03:13.291Z,13.00
2024-02-24T10:05:41.350Z,10.50
2024-02-24T10:08:11.897Z,11.20
2024-02-24T10:10:40.468Z,10.50
2024-02-24T10:13:07.883Z,9.80
2024-02-24T10:15:36.989Z,8.90
2024-02-24T10:18:05.427Z,7.80
2024-02-24T10:20:33.081Z,10.50
2024-02-24T10:23:00.682Z,7.00
2024-02-24T10:25:28.109Z,8.70
2024-02-24T10:27:56.536Z,7.40
2024-02-24T10:30:25.485Z,7.60
2024-02-24T10:32:57.623Z,6.10
2024-02-24T10:35:25.470Z,6.80
2024-02-24T10:38:10.999Z,5.90
2024-02-24T10:40:44.638Z,5.20
2024-02-24T10:43:13.939Z,7.70
2024-02-24T10:45:41.410Z,4.00
2024-02-24T10:48:10.158Z,4.80
2024-02-24T10:50:37.901Z,4.70
2024-02-24T10:53:06.586Z,3.60
2024-02-24T10:55:37.409Z,3.10
2024-02-24T10:58:04.646Z,1.90
2024-02-24T11:00:37.262Z,2.30
2024-02-24T11:03:06.202Z,2.00
2024-02-24T11:05:35.486Z,3.40
2024-02-24T11:08:04.964Z,1.90
2024-02-24T11:10:36.765Z,2.00
2024-02-24T11:13:04.878Z,2.10
2024-02-24T11:15:32.387Z,3.70
2024-02-24T11:18:00.502Z,2.80
2024-02-24T11:20:59.765Z,2.80
2024-02-24T11:23:33.251Z,3.70
2024-02-24T11:26:33.138Z,3.70
2024-02-24T11:29:08.910Z,5.60
2024-02-24T11:31:38.021Z,4.30
2024-02-24T11:34:09.724Z,5.40
2024-02-24T11:36:39.991Z,4.90
2024-02-24T11:39:09.862Z,5.40
2024-02-24T11:41:38.133Z,3.40
2024-02-24T11:44:05.897Z,3.00
2024-02-24T11:46:34.781Z,2.80
2024-02-24T11:49:02.630Z,3.00
2024-02-24T11:51:30.025Z,3.60
2024-02-24T11:53:57.682Z,3.30
2024-02-24T11:56:27.157Z,3.20
2024-02-24T11:58:56.661Z,5.00
2024-02-24T12:01:24.552Z,4.20
2024-02-24T12:03:56.840Z,2.50
2024-02-24T12:06:25.950Z,2.30
2024-02-24T12:08:54.454Z,3.00
2024-02-24T12:11:22.787Z,2.10
2024-02-24T12:13:50.305Z,2.40
2024-02-24T12:16:18.066Z,2.20
2024-02-24T12:18:46.555Z,3.60
2024-02-24T12:21:15.279Z,2.40
2024-02-24T12:23:43.465Z,2.90
2024-02-24T12:26:20.108Z,2.60
2024-02-24T12:28:48.923Z,3.20
2024-02-24T12:31:17.387Z,2.30
2024-02-24T12:33:46.850Z,4.80
2024-02-24T12:36:17.139Z,2.80
2024-02-24T12:38:45.440Z,2.50
2024-02-24T12:41:14.621Z,2.50
2024-02-24T12:43:43.136Z,2.60
2024-02-24T12:46:11.131Z,4.40
2024-02-24T12:48:42.091Z,2.90
2024-02-24T12:51:11.097Z,2.40
2024-02-24T12:53:38.588Z,3.10
2024-02-24T12:56:06.459Z,3.00
2024-02-24T12:58:35.363Z,4.80
2024-02-24T13:01:02.623Z,3.50
2024-02-24T13:03:29.795Z,3.90
2024-02-24T13:05:57.220Z,3.70
2024-02-24T13:08:24.899Z,3.90
2024-02-24T13:10:52.373Z,4.10
2024-02-24T13:13:19.564Z,4.30
2024-02-24T13:15:47.721Z,4.10
2024-02-24T13:18:15.064Z,4.30
2024-02-24T13:20:42.420Z,4.60
2024-02-24T13:23:09.565Z,4.30
2024-02-24T13:25:37.304Z,7.50
2024-02-24T13:28:05.096Z,4.60
2024-02-24T13:30:32.409Z,5.00
2024-02-24T13:33:00.068Z,5.50
2024-02-24T13:35:29.552Z,4.90
2024-02-24T13:37:56.766Z,5.20
2024-02-24T13:40:25.616Z,5.00
2024-02-24T13:42:52.930Z,6.90
2024-02-24T13:45:20.644Z,4.90
2024-02-24T13:47:50.996Z,5.10
2024-02-24T13:50:24.046Z,4.90
2024-02-24T13:52:51.337Z,5.30
2024-02-24T13:55:19.020Z,5.90
2024-02-24T13:57:46.731Z,5.70
2024-02-24T14:00:16.112Z,4.70
2024-02-24T14:02:44.296Z,5.10
2024-02-24T14:05:13.832Z,5.70
2024-02-24T14:07:41.309Z,4.90
2024-02-24T14:10:10.103Z,4.90
2024-02-24T14:12:37.485Z,4.90
2024-02-24T14:15:05.165Z,4.60
2024-02-24T14:17:32.607Z,5.00
2024-02-24T14:20:05.549Z,4.60
2024-02-24T14:22:39.134Z,5.70
2024-02-24T14:25:07.967Z,4.90
2024-02-24T14:27:35.711Z,4.40
2024-02-24T14:30:03.499Z,6.30
2024-02-24T14:32:31.017Z,4.70
2024-02-24T14:34:58.861Z,4.10
2024-02-24T14:37:26.158Z,4.40
2024-02-24T14:39:53.308Z,4.70
2024-02-24T14:42:20.444Z,4.90
2024-02-24T14:44:47.812Z,5.90
2024-02-24T14:47:15.087Z,4.30
2024-02-24T14:49:42.781Z,4.70
2024-02-24T14:52:11.281Z,4.90
2024-02-24T14:54:42.211Z,7.20
2024-02-24T14:57:13.703Z,5.40
2024-02-24T14:59:42.275Z,5.10
2024-02-24T15:02:10.474Z,5.40
2024-02-24T15:04:38.430Z,6.40
2024-02-24T15:07:06.595Z,5.90
2024-02-24T15:09:34.467Z,6.90
2024-02-24T15:12:02.022Z,6.60
2024-02-24T15:14:29.687Z,5.70
2024-02-24T15:16:58.242Z,6.20
2024-02-24T15:19:25.447Z,7.20
2024-02-24T15:21:53.057Z,5.40
2024-02-24T15:24:21.176Z,8.50
2024-02-24T15:26:48.814Z,6.30
2024-02-24T15:29:18.392Z,6.10
2024-02-24T15:31:46.497Z,7.50
2024-02-24T15:34:14.688Z,6.70
2024-02-24T15:36:44.692Z,7.90
2024-02-24T15:39:12.427Z,6.70
2024-02-24T15:41:40.057Z,7.60
2024-02-24T15:44:08.091Z,6.90
2024-02-24T15:46:36.106Z,6.80
2024-02-24T15:49:03.675Z,6.10
2024-02-24T15:51:31.302Z,7.00
2024-02-24T15:53:58.821Z,6.90
2024-02-24T15:56:26.505Z,11.00
2024-02-24T15:58:53.721Z,7.70
2024-02-24T16:01:23.621Z,7.60
2024-02-24T16:03:51.022Z,7.60
2024-02-24T16:06:20.275Z,8.30
2024-02-24T16:08:47.810Z,8.60
2024-02-24T16:11:15.712Z,7.60
2024-02-24T16:13:43.112Z,8.70
2024-02-24T16:16:14.320Z,9.30
2024-02-24T16:18:42.977Z,10.60
2024-02-24T16:21:10.837Z,10.10
2024-02-24T16:23:38.779Z,10.30
2024-02-24T16:26:07.046Z,11.00
2024-02-24T16:28:34.922Z,11.10
2024-02-24T16:31:02.667Z,10.60
2024-02-24T16:33:30.500Z,10.50
2024-02-24T16:35:58.018Z,13.90
2024-02-24T16:38:25.768Z,12.20
2024-02-24T16:40:53.631Z,12.90
2024-02-24T16:43:21.167Z,14.00
2024-02-24T16:45:48.869Z,13.40
2024-02-24T16:48:19.635Z,15.50
2024-02-24T16:50:47.376Z,14.50
2024-02-24T16:53:14.718Z,12.00
2024-02-24T16:55:41.986Z,11.80
2024-02-24T16:58:09.613Z,15.10
2024-02-24T17:00:37.002Z,12.90
2024-02-24T17:03:05.011Z,19.40
2024-02-24T17:05:32.362Z,19.20
2024-02-24T17:07:59.787Z,20.20
2024-02-24T17:10:27.400Z,15.00
2024-02-24T17:12:55.040Z,18.40
2024-02-24T17:15:22.939Z,18.10
2024-02-24T17:17:50.611Z,19.90
2024-02-24T17:20:20.316Z,17.10
2024-02-24T17:22:47.862Z,16.40
2024-02-24T17:25:16.869Z,19.30
2024-02-24T17:27:46.718Z,17.90
2024-02-24T17:30:18.761Z,17.40
2024-02-24T17:32:46.219Z,19.20
2024-02-24T17:35:14.661Z,17.90
2024-02-24T17:37:42.986Z,16.90
2024-02-24T17:40:12.898Z,21.70
2024-02-24T17:42:40.324Z,17.40
2024-02-24T17:45:09.700Z,15.30
2024-02-24T17:47:37.017Z,17.60
2024-02-24T17:50:05.156Z,17.20
2024-02-24T17:52:32.818Z,18.20
2024-02-24T17:55:00.225Z,19.60
2024-02-24T17:57:27.942Z,17.30
2024-02-24T17:59:56.054Z,18.20
2024-02-24T18:02:23.958Z,16.70
2024-02-24T18:04:51.570Z,18.90
2024-02-24T18:07:19.242Z,18.10
2024-02-24T18:09:46.498Z,22.90
2024-02-24T18:12:13.999Z,17.20
2024-02-24T18:14:42.807Z,21.80
2024-02-24T18:17:10.872Z,19.70
2024-02-24T18:19:38.590Z,22.20
2024-02-24T18:22:06.180Z,18.80
2024-02-24T18:24:33.558Z,18.50
2024-02-24T18:27:01.047Z,17.20
2024-02-24T18:29:28.805Z,21.80
2024-02-24T18:31:56.240Z,32.40
2024-02-24T18:34:23.754Z,58.70
2024-02-24T18:36:51.887Z,52.60
2024-02-24T18:39:19.536Z,38.60
2024-02-24T18:41:46.932Z,60.00
2024-02-24T18:44:16.145Z,82.00
2024-02-24T18:46:43.848Z,59.80
2024-02-24T18:49:11.688Z,39.20
2024-02-24T18:51:39.140Z,39.80
2024-02-24T18:54:07.814Z,42.90
2024-02-24T18:56:36.613Z,31.40
2024-02-24T18:59:06.253Z,28.50
2024-02-24T19:01:33.631Z,23.00
2024-02-24T19:04:01.041Z,21.80
2024-02-24T19:06:28.546Z,21.10
2024-02-24T19:08:56.163Z,21.00
2024-02-24T19:11:23.622Z,22.10
2024-02-24T19:13:51.132Z,22.90
2024-02-24T19:16:18.480Z,28.00
2024-02-24T19:18:46.192Z,24.30
2024-02-24T19:21:14.118Z,23.60
2024-02-24T19:23:41.596Z,22.30
2024-02-24T19:26:09.821Z,24.80
2024-02-24T19:28:37.171Z,23.10
2024-02-24T19:31:04.551Z,25.70
2024-02-24T19:33:32.059Z,24.30
2024-02-24T19:35:59.792Z,24.90
2024-02-24T19:38:27.664Z,24.40
2024-02-24T19:40:55.044Z,23.20
2024-02-24T19:43:22.333Z,25.90
2024-02-24T19:45:49.628Z,25.90
2024-02-24T19:48:17.071Z,26.20
2024-02-24T19:50:48.980Z,25.20
2024-02-24T19:53:16.515Z,24.80
2024-02-24T19:55:43.760Z,26.00
2024-02-24T19:58:21.030Z,25.80
2024-02-24T20:00:56.821Z,26.10
2024-02-24T20:03:24.372Z,26.30
2024-02-24T20:05:51.885Z,27.70
2024-02-24T20:08:19.373Z,29.50
2024-02-24T20:10:47.045Z,30.40
2024-02-24T20:13:14.347Z,29.80
2024-02-24T20:15:41.598Z,33.00
2024-02-24T20:18:09.436Z,32.00
2024-02-24T20:20:36.693Z,34.10
2024-02-24T20:23:03.908Z,32.80
2024-02-24T20:25:31.248Z,33.80
2024-02-24T20:27:58.379Z,34.10
2024-02-24T20:30:25.524Z,32.70
2024-02-24T20:32:54.173Z,30.60
2024-02-24T20:35:22.081Z,32.30
2024-02-24T20:37:49.740Z,31.40
2024-02-24T20:40:17.642Z,35.00
2024-02-24T20:42:45.074Z,31.20
2024-02-24T20:45:13.821Z,30.10
2024-02-24T20:47:41.641Z,27.50
2024-02-24T20:50:10.676Z,26.80
2024-02-24T20:52:38.230Z,27.90
2024-02-24T20:55:06.080Z,28.60
2024-02-24T20:57:33.816Z,27.70
2024-02-24T21:00:03.783Z,29.60
2024-02-24T21:02:31.798Z,27.50
2024-02-24T21:04:59.148Z,27.40
2024-02-24T21:07:26.916Z,26.40
2024-02-24T21:09:54.250Z,27.60
2024-02-24T21:12:22.483Z,29.70
2024-02-24T21:14:49.849Z,25.40
2024-02-24T21:17:17.383Z,26.50
2024-02-24T21:19:44.984Z,30.50
2024-02-24T21:22:12.396Z,32.20
2024-02-24T21:24:39.569Z,30.30
2024-02-24T21:27:07.438Z,34.90
2024-02-24T21:29:35.339Z,28.90
2024-02-24T21:32:02.753Z,31.60
2024-02-24T21:34:31.555Z,30.50
2024-02-24T21:36:59.087Z,28.80
2024-02-24T21:39:26.625Z,32.20
2024-02-24T21:41:53.913Z,25.90
2024-02-24T21:44:21.388Z,28.40
2024-02-24T21:46:48.790Z,28.90
2024-02-24T21:49:19.003Z,27.90
2024-02-24T21:51:46.541Z,26.30
2024-02-24T21:54:15.980Z,25.60
2024-02-24T21:56:45.528Z,27.10
2024-02-24T21:59:12.752Z,26.70
2024-02-24T22:01:40.025Z,27.10
2024-02-24T22:04:08.020Z,28.70
2024-02-24T22:06:36.530Z,26.20
2024-02-24T22:09:04.946Z,29.20
2024-02-24T22:11:35.153Z,30.70
2024-02-24T22:14:02.576Z,28.70
2024-02-24T22:16:30.302Z,26.60
2024-02-24T22:18:58.011Z,30.50
2024-02-24T22:21:27.919Z,29.70
2024-02-24T22:23:55.333Z,31.70
2024-02-24T22:26:25.201Z,31.90
2024-02-24T22:28:53.711Z,35.30
2024-02-24T22:31:21.957Z,34.30
2024-02-24T22:33:49.301Z,35.70
2024-02-24T22:36:16.895Z,37.20
2024-02-24T22:38:44.693Z,38.30
2024-02-24T22:41:12.003Z,37.50
2024-02-24T22:43:39.400Z,39.40
2024-02-24T22:46:08.714Z,43.20
2024-02-24T22:48:36.083Z,40.20
2024-02-24T22:51:03.533Z,41.80
2024-02-24T22:53:31.219Z,43.40
2024-02-24T22:55:58.378Z,43.90
2024-02-24T22:58:25.706Z,48.10
2024-02-24T23:00:53.202Z,47.80
2024-02-24T23:03:23.418Z,49.90
2024-02-24T23:05:51.650Z,51.30
2024-02-24T23:08:18.956Z,51.40
2024-02-24T23:10:46.219Z,52.60
2024-02-24T23:13:13.568Z,53.00
2024-02-24T23:15:40.821Z,53.60
2024-02-24T23:18:09.403Z,55.60
2024-02-24T23:20:36.755Z,54.40
2024-02-24T23:23:04.320Z,63.00
2024-02-24T23:25:33.088Z,50.80
2024-02-24T23:28:00.260Z,54.10
2024-02-24T23:30:27.709Z,55.40
2024-02-24T23:32:55.193Z,49.10
2024-02-24T23:35:22.672Z,51.10
2024-02-24T23:37:49.919Z,51.40
2024-02-24T23:40:17.963Z,50.50
2024-02-24T23:42:46.042Z,50.30
2024-02-24T23:45:14.015Z,46.10
2024-02-24T23:47:42.665Z,45.80
2024-02-24T23:50:11.295Z,42.40
2024-02-24T23:52:38.820Z,44.30
2024-02-24T23:55:08.571Z,43.10
2024-02-24T23:57:35.718Z,41.80
